Time,TemperatureF,DewpointF,PressureIn,WindDirection,WindDirectionDegrees,WindSpeedMPH,WindSpeedGustMPH,Humidity,HourlyPrecipIn,Conditions,Clouds,dailyrainin,SoftwareType,DateUTC
2013-06-29 00:10:00,70.0,59.0,-100.00,NNW,345,5.0,7.0,68,-99.99,,,-99.99,,2013-06-29 07:10:00,
2013-06-29 02:10:00,68.0,58.0,-100.00,North,360,3.0,12.0,70,-99.99,,,-99.99,,2013-06-29 09:10:00,
2013-06-29 02:12:00,70.0,59.0,-100.00,WNW,290,7.0,12.0,68,-99.99,,,-99.99,,2013-06-29 09:12:00,
2013-06-29 04:11:00,67.0,57.0,-100.00,NW,320,3.0,9.0,70,-99.99,,,-99.99,,2013-06-29 11:11:00,
2013-06-29 05:10:00,65.0,57.0,-100.00,North,360,2.0,7.0,75,-99.99,,,-99.99,,2013-06-29 12:10:00,
2013-06-29 07:10:00,70.0,59.0,-100.00,NW,320,5.0,9.0,68,-99.99,,,-99.99,,2013-06-29 14:10:00,
2013-06-29 07:12:00,65.0,58.0,-100.00,North,360,3.0,6.0,78,-99.99,,,-99.99,,2013-06-29 14:12:00,
2013-06-29 09:12:00,72.0,60.0,-100.00,WNW,300,6.0,12.0,65,-99.99,,,-99.99,,2013-06-29 16:12:00,
2013-06-29 09:20:00,75.0,62.0,-100.00,North,360,2.0,8.0,63,-99.99,,,-99.99,,2013-06-29 16:20:00,
2013-06-29 10:10:00,82.0,62.0,-100.00,NNE,15,2.0,8.0,50,-99.99,,,-99.99,,2013-06-29 17:10:00,
2013-06-29 10:12:00,75.0,62.0,-100.00,North,360,2.0,8.0,63,-99.99,,,-99.99,,2013-06-29 17:12:00,
2013-06-29 12:12:00,84.0,62.0,-100.00,SE,145,3.0,6.0,47,-99.99,,,-99.99,,2013-06-29 19:12:00,
2013-06-29 13:10:00,84.0,65.0,-100.00,East,95,3.0,10.0,52,-99.99,,,-99.99,,2013-06-29 20:10:00,
2013-06-29 14:01:00,84.0,65.0,-100.00,East,95,3.0,10.0,52,-99.99,,,-99.99,,2013-06-29 21:01:00,
2013-06-29 15:10:00,79.0,64.0,-100.00,North,5,5.0,12.0,60,-99.99,,,-99.99,,2013-06-29 22:10:00,
2013-06-29 15:11:00,79.0,64.0,-100.00,SE,130,5.0,12.0,60,-99.99,,,-99.99,,2013-06-29 22:11:00,
2013-06-29 17:02:00,76.0,65.0,-100.00,North,360,2.0,7.0,68,-99.99,,,-99.99,,2013-06-30 00:02:00,
2013-06-29 17:11:00,76.0,65.0,-100.00,North,360,2.0,7.0,68,-99.99,,,-99.99,,2013-06-30 00:11:00,
2013-06-29 18:10:00,69.0,65.0,-100.00,NE,40,2.0,12.0,87,-99.99,,,-99.99,,2013-06-30 01:10:00,
2013-06-29 20:10:00,70.0,66.0,-100.00,North,350,2.0,7.0,87,-99.99,,,-99.99,,2013-06-30 03:10:00,
2013-06-29 20:11:00,71.0,65.0,-100.00,West,270,1.0,6.0,81,-99.99,,,-99.99,,2013-06-30 03:11:00,
2013-06-29 22:12:00,68.0,64.0,-100.00,NW,305,5.0,9.0,87,-99.99,,,-99.99,,2013-06-30 05:12:00,
2013-06-29 22:20:00,67.0,63.0,-100.00,NW,310,6.0,9.0,86,-99.99,,,-99.99,,2013-06-30 05:20:00,
2013-06-29 23:12:00,67.0,63.0,-100.00,NW,310,6.0,9.0,86,-99.99,,,-99.99,,2013-06-30 06:12:00,